• Join FlightAware (Why Join?)
  • Login
  • US Flag 
06:22PM EDT


 

Airport Tracker/Info


-or-


 

Live Flight TrackerFlight Track Log ✈ ELO3908 ✈ 27-Sep-2013 ✈ EPKK / KRK - EPWA / WAW

Flight Track Log - Related Links

Times and Time Zones

All times are in EDT time to prevent confusion due to time zone crossing. See the ELO3908 flight status page for this flight to view local times or setup timezone preferences in your user account.

Time Position Orientation Groundspeed Altitude Reporting Facility
EDT Latitude Longitude Course Direction KTS MPH feet Rate Location/Type
10:29AM 50.5999 20.0700 19° North  Level Estimated
10:30AM 50.6632 20.1050 19° North  Level Estimated
10:31AM 50.7264 20.1401 19° North  Level Estimated
10:32AM 50.7896 20.1753 19° North  Level Estimated
10:33AM 50.8529 20.2106 19° North  Level Estimated
10:34AM 50.9161 20.2460 19° North  Level Estimated
10:35AM 50.9793 20.2814 19° North  Level Estimated
10:36AM 51.0425 20.3170 19° North  Level Estimated
10:37AM 51.1056 20.3527 20° North  Level Estimated
10:38AM 51.1688 20.3884 20° North  Level Estimated
10:39AM 51.2319 20.4243 20° North  Level Estimated
10:40AM 51.2951 20.4602 20° North  Level Estimated
10:41AM 51.3582 20.4963 20° North  Level Estimated
10:42AM 51.4213 20.5325 20° North  Level Estimated
10:43AM 51.4844 20.5687 20° North  Level Estimated
10:44AM 51.5475 20.6051 20° North  Level Estimated
10:45AM 51.6106 20.6415 20° North  Level Estimated
10:46AM 51.6737 20.6781 20° North  Level Estimated
10:47AM 51.7368 20.7148 20° North  Level Estimated
10:48AM 51.7998 20.7515 20° North  Level Estimated
10:49AM 51.8629 20.7884 20° North  Level Estimated
10:50AM 51.9259 20.8254 20° North  Level Estimated
10:51AM 51.9889 20.8625 20° North  Level Estimated
10:52AM 52.0519 20.8997 20° North  Level Estimated
10:53AM 52.1149 20.9369 20° North  Level Estimated
10:54AM 52.1657 20.9671 20° North  Level Estimated
10:55AM 52.1657 20.9671 90° East  Level Estimated
10:56AM 52.1657 20.9671 90° East  Level Estimated
10:57AM 52.1657 20.9671 90° East  Level Estimated
10:58AM 52.1657 20.9671 90° East  Level Estimated
10:59AM 52.1657 20.9671 90° East  Level Estimated
11:00AM 52.1657 20.9671 90° East  Level Estimated
11:01AM 52.1657 20.9671 90° East  Level Estimated
11:02AM 52.1657 20.9671 90° East  Level Estimated
11:03AM 52.1657 20.9671 90° East  Level Estimated
11:04AM 52.1657 20.9671 90° East  Level Estimated
11:05AM 52.1657 20.9671 90° East  Level Estimated
11:06AM 52.1657 20.9671 90° East  Level Estimated
11:07AM 52.1657 20.9671 90° East  Level Estimated